EST,Max TemperatureF,Mean TemperatureF,Min TemperatureF,Max Dew PointF,MeanDew PointF,Min DewpointF,Max Humidity, Mean Humidity, Min Humidity, Max Sea Level PressureIn, Mean Sea Level PressureIn, Min Sea Level PressureIn, Max VisibilityMiles, Mean VisibilityMiles, Min VisibilityMiles, Max Wind SpeedMPH, Mean Wind SpeedMPH, Max Gust SpeedMPH,PrecipitationIn, CloudCover, Events, WindDirDegrees
2012-12-1,44,38,32,41,33,21,100,84,50,30.60,30.54,30.47,10,9,2,12,7,,0.04,8,Rain-Snow,76
2012-12-2,57,50,44,54,47,41,100,85,67,30.47,30.28,30.08,10,10,2,22,11,30,0.00,8,Rain,179
2012-12-3,59,46,32,50,42,30,100,82,51,30.30,30.16,30.06,10,8,0,23,11,33,0.00,8,Fog,277
2012-12-4,53,42,30,50,43,28,100,92,77,30.34,30.24,30.05,10,7,0,15,6,,0.00,8,Fog-Rain,163
2012-12-5,57,47,35,55,39,19,100,70,42,30.10,29.96,29.88,10,10,2,24,14,34,0.01,0,Rain,279
2012-12-6,38,28,19,25,19,14,93,65,46,30.32,30.26,30.10,10,10,10,17,8,23,0.00,0,,342
2012-12-7,48,34,19,47,35,18,100,87,62,30.31,30.18,30.06,10,9,5,14,3,21,0.04,6,Rain,172
2012-12-8,55,50,44,55,48,45,100,98,93,30.06,29.94,29.83,10,4,0,18,5,22,0.20,3,Fog-Rain,190
2012-12-9,49,45,41,48,40,32,100,85,61,30.28,30.18,29.98,10,7,0,15,8,21,0.20,0,Fog-Rain,14
2012-12-10,62,53,44,61,55,41,100,97,87,30.13,29.76,29.52,10,4,0,26,16,39,0.20,0,Fog-Rain-Thunderstorm,203
2012-12-11,55,45,33,54,39,23,100,78,54,30.15,29.85,29.57,10,9,0,14,9,21,0.02,0,Fog-Rain,303
2012-12-12,39,32,26,28,22,18,93,65,42,30.43,30.32,30.15,10,10,10,13,7,17,0.00,0,,326
2012-12-13,44,34,23,30,26,23,100,74,38,30.46,30.39,30.31,10,10,10,10,4,,0.00,0,,3
2012-12-14,46,34,23,36,28,21,100,75,51,30.30,30.18,30.08,10,10,10,21,6,28,0.00,,,273
2012-12-15,43,36,28,31,26,23,87,72,45,30.33,30.27,30.16,10,10,10,14,7,20,0.00,,,9
2012-12-16,41,36,30,40,29,23,100,79,54,30.32,30.20,30.02,10,8,2,20,9,23,0.12,8,Rain,90
2012-12-17,50,44,39,49,44,37,100,97,90,30.02,29.90,29.74,10,4,1,17,11,25,0.08,8,Rain,72
2012-12-18,53,48,44,54,47,41,100,96,87,29.73,29.51,29.43,10,6,0,16,10,22,0.08,8,Fog-Rain-Thunderstorm,198
2012-12-19,44,40,37,41,33,30,93,71,58,29.99,29.65,29.43,10,10,10,23,14,34,0.01,8,Thunderstorm,317
2012-12-20,43,38,32,36,32,28,93,82,65,30.19,30.11,30.00,10,9,3,18,7,21,0.01,8,Rain,9
2012-12-21,52,44,37,50,41,32,100,87,66,30.03,29.47,29.17,10,8,1,32,15,47,0.55,8,Rain,166
2012-12-22,41,36,30,36,25,16,87,65,41,29.65,29.42,29.27,10,10,5,25,16,37,0.00,8,Rain,274
2012-12-23,39,34,30,30,21,16,75,57,37,29.89,29.82,29.66,10,10,10,24,16,31,0.00,8,,275
2012-12-24,39,32,24,28,22,18,87,65,42,30.07,30.01,29.89,10,10,6,15,7,20,0.01,8,,289
2012-12-25,46,37,28,44,33,25,100,93,80,30.20,30.03,29.95,10,8,2,17,7,20,0.02,8,Rain-Snow,9
2012-12-26,40,30,21,37,27,19,93,79,57,30.29,30.18,29.86,10,9,3,24,9,37,0.43,4,Rain,41
2012-12-27,53,42,32,51,41,27,100,92,80,29.86,29.39,29.20,10,6,1,38,20,56,0.43,2,Rain-Snow,13
2012-12-28,36,31,26,28,23,19,87,72,50,30.02,29.87,29.59,10,10,8,20,13,30,0.00,0,,307
2012-12-29,42,32,23,40,29,21,100,88,70,30.02,29.72,29.18,10,7,0,28,6,37,0.98,0,Rain-Snow,39
2012-12-30,33,28,23,32,22,13,100,80,39,29.97,29.64,29.32,10,9,1,28,17,36,0.01,0,Rain-Snow,312
2012-12-31,39,29,19,28,21,12,86,74,42,30.07,29.96,29.80,10,10,10,21,13,30,0.00,0,,274